Haxby, United Kingdom
Current Conditions -  °F | °C
As of 1:50 PM on Thursday 18 Dec 2014 (Local Time) from EGXU Reporting Station
Scattered Clouds Scattered Clouds  
Wind Chill: 55°   Ceiling: Unl
Heat Index: 55°   Visibility: 6mi
Dew Point: 52°   Wind: 26mph
Humidity: 88%   Direction: 250°WSW
Pressure: 29.47"   Gusts: 39mph
Location:  54.02°N, 1.08°W
Report Text: EGXU 181350Z 25023G34KT 9999 SCT018 SCT080 13/11 Q0998 WHT TEMPO FEW018 BLU
Loading
Personal Weather Stations






























Interactive Weather Map New forecast layout! Learn more

10-Day Weather Forecast

Advertisements
Track Severe Weather on mobile